Time;durP1;ratioP1;P1;durP2;ratioP2;P2;SDS_P1;SDS_P2;PMS_P1;PMS_P2;Temp;Humidity;BMP_temperature;BMP_pressure;BME280_temperature;BME280_humidity;BME280_pressure;Samples;Min_cycle;Max_cycle;Signal;HPM_P1;HPM_P2
2021/11/17 02:32:14;;;;;;;0.63;0.63;;;;;;;9.76;66.77;102021.19;5090681;27;20405;-89
2021/11/17 02:40:37;;;;;;;2.83;2.60;;;;;;;9.82;66.19;102023.84;5090854;27;20392;-88
2021/11/17 02:49:31;;;;;;;0.13;0.13;;;;;;;9.83;66.30;102040.59;5111850;27;20454;-89
2021/11/17 02:52:24;;;;;;;0.10;0.10;;;;;;;9.86;66.45;102048.56;5111763;28;20040;-87
2021/11/17 03:01:20;;;;;;;1.80;1.70;;;;;;;9.84;66.15;102035.34;5090808;28;20392;-90
2021/11/17 03:04:08;;;;;;;0.30;0.30;;;;;;;9.86;66.42;102038.00;5071037;28;20047;-88
2021/11/17 03:06:58;;;;;;;0.43;0.43;;;;;;;9.93;66.36;102042.41;5049789;28;20079;-90
2021/11/17 03:09:45;;;;;;;2.65;0.95;;;;;;;9.90;66.58;102034.47;5051114;28;20026;-88
2021/11/17 03:21:01;;;;;;;2.70;2.50;;;;;;;9.95;66.20;102018.59;5090716;27;20385;-89
2021/11/17 03:26:47;;;;;;;5.47;0.90;;;;;;;9.95;66.04;102006.22;5067287;27;20745;-88
2021/11/17 03:52:35;;;;;;;0.75;0.75;;;;;;;9.90;66.38;101997.38;5111731;27;20380;-87
2021/11/17 04:01:24;;;;;;;1.95;1.85;;;;;;;9.91;66.38;101991.22;5091440;28;20847;-89
2021/11/17 04:04:19;;;;;;;0.30;0.30;;;;;;;9.84;66.79;101985.06;5071338;28;20467;-89
2021/11/17 04:09:48;;;;;;;0.40;0.40;;;;;;;9.85;67.27;101985.91;5090958;27;20421;-90
2021/11/17 04:21:21;;;;;;;2.53;2.38;;;;;;;9.78;67.12;101974.44;5111381;27;20395;-90
2021/11/17 04:26:43;;;;;;;0.32;0.32;;;;;;;9.76;67.16;101967.38;5072124;27;20922;-89
2021/11/17 04:40:56;;;;;;;1.20;1.20;;;;;;;9.82;67.27;101975.31;5070574;28;20624;-89
2021/11/17 04:44:02;;;;;;;1.83;1.73;;;;;;;9.86;67.41;101977.09;5050712;28;20041;-87
2021/11/17 04:49:48;;;;;;;1.17;1.10;;;;;;;9.87;67.52;101978.88;5090918;27;20421;-87
2021/11/17 04:55:37;;;;;;;1.35;1.25;;;;;;;9.95;67.28;101992.97;5081710;27;20469;-89
2021/11/17 05:01:41;;;;;;;1.20;1.10;;;;;;;9.99;67.50;101992.13;5070490;28;20394;-89
2021/11/17 05:04:37;;;;;;;1.17;1.08;;;;;;;9.96;67.31;101983.28;5102986;28;20028;-89
2021/11/17 05:07:17;;;;;;;0.28;0.28;;;;;;;9.91;67.41;101991.22;5083312;28;20029;-88
2021/11/17 05:13:15;;;;;;;0.20;0.20;;;;;;;10.07;66.95;101991.22;5070661;28;20402;-89
2021/11/17 05:16:15;;;;;;;17.60;3.20;;;;;;;9.98;67.31;101993.00;5070398;28;20040;-88
2021/11/17 05:21:49;;;;;;;1.92;1.83;;;;;;;10.10;67.28;101991.25;5091056;27;20417;-87
2021/11/17 05:24:32;;;;;;;0.32;0.32;;;;;;;10.00;68.18;101991.22;5069539;28;20032;-86
2021/11/17 05:27:18;;;;;;;;;;;;;;;10.20;67.21;101977.09;5051328;28;20055;-87
2021/11/17 05:30:06;;;;;;;4.90;0.63;;;;;;;10.06;67.72;101979.75;5050153;28;19913;-88
2021/11/17 05:35:47;;;;;;;0.43;0.43;;;;;;;10.12;67.71;101971.81;5080646;28;20950;-88
2021/11/17 05:47:14;;;;;;;0.30;0.30;;;;;;;10.17;67.72;101988.59;5070551;28;20411;-86
2021/11/17 05:49:54;;;;;;;2.80;2.67;;;;;;;10.23;67.34;101989.47;5050292;28;20029;-88
2021/11/17 05:58:13;;;;;;;10.07;2.83;;;;;;;10.21;67.52;101994.78;5090756;28;20396;-87
2021/11/17 06:03:59;;;;;;;0.38;0.38;;;;;;;10.21;67.95;101984.19;5090820;27;20456;-86
2021/11/17 06:06:27;;;;;;;0.75;0.75;;;;;;;10.26;67.81;101982.41;5054044;28;20040;-89
2021/11/17 06:08:56;;;;;;;2.05;0.65;;;;;;;10.25;67.93;101993.00;5050258;28;20356;-89
2021/11/17 06:11:28;;;;;;;2.63;1.10;;;;;;;10.27;67.70;101993.88;5048708;28;20391;-89
2021/11/17 06:13:56;;;;;;;0.75;0.70;;;;;;;10.29;68.14;101998.31;5050041;28;20033;-88
2021/11/17 06:16:22;;;;;;;2.15;2.05;;;;;;;10.30;68.10;102000.06;5050199;28;20052;-87
2021/11/17 06:18:49;;;;;;;1.80;1.65;;;;;;;10.37;67.79;101993.03;5050353;28;20029;-87
2021/11/17 06:21:17;;;;;;;0.88;0.82;;;;;;;10.34;67.84;101995.63;5050840;28;20057;-88
2021/11/17 06:23:49;;;;;;;1.25;1.25;;;;;;;10.36;67.92;102000.09;5050508;28;20030;-86
2021/11/17 06:26:19;;;;;;;1.95;1.85;;;;;;;10.40;68.35;101992.16;5050410;28;20112;-88
2021/11/17 06:28:50;;;;;;;1.55;1.48;;;;;;;10.43;68.30;102000.09;5050687;28;20021;-87
2021/11/17 06:31:16;;;;;;;0.77;0.77;;;;;;;10.44;68.12;102002.75;5051137;28;20531;-88
2021/11/17 06:33:42;;;;;;;1.98;1.88;;;;;;;10.44;68.24;101999.19;5050831;28;20052;-88
2021/11/17 06:36:09;;;;;;;1.33;1.30;;;;;;;10.43;68.35;101997.44;5050971;28;20461;-88
2021/11/17 06:38:35;;;;;;;2.15;1.98;;;;;;;10.49;68.41;101997.44;5049102;28;20033;-87
2021/11/17 06:41:01;;;;;;;1.60;1.60;;;;;;;10.52;68.29;101993.00;5049387;28;20067;-88
2021/11/17 06:43:27;;;;;;;0.32;0.32;;;;;;;10.52;68.41;102005.38;5049710;28;20112;-87
2021/11/17 06:45:56;;;;;;;2.35;2.20;;;;;;;10.60;68.29;102000.06;5050932;28;20116;-88
2021/11/17 06:48:24;;;;;;;1.77;1.67;;;;;;;10.54;68.52;102000.94;5049998;28;20033;-88
2021/11/17 06:50:53;;;;;;;2.15;2.05;;;;;;;10.60;68.53;102005.38;5050229;28;20377;-88
2021/11/17 06:53:20;;;;;;;0.32;0.32;;;;;;;10.61;68.16;102001.84;5049771;28;20480;-88
2021/11/17 06:55:47;;;;;;;1.33;1.13;;;;;;;10.64;68.39;102005.38;5049832;28;20132;-88
2021/11/17 06:58:13;;;;;;;1.52;1.52;;;;;;;10.70;68.42;102008.91;5050195;28;20060;-87
2021/11/17 07:00:42;;;;;;;0.20;0.20;;;;;;;10.65;68.94;102012.44;5050037;28;20091;-88
2021/11/17 07:03:09;;;;;;;0.75;0.75;;;;;;;10.75;68.44;102009.75;5049710;28;20040;-87
2021/11/17 07:05:36;;;;;;;0.75;0.75;;;;;;;10.77;68.67;102005.34;5049664;28;20033;-88
2021/11/17 07:08:04;;;;;;;1.33;1.33;;;;;;;10.70;68.85;102012.41;5050231;28;20025;-89
2021/11/17 07:10:32;;;;;;;0.73;0.73;;;;;;;10.82;68.79;102020.34;5049247;28;20029;-85
2021/11/17 07:12:59;;;;;;;0.70;0.57;;;;;;;10.82;68.54;102032.72;5046818;28;20072;-89
2021/11/17 07:15:28;;;;;;;0.85;0.85;;;;;;;10.91;68.47;102030.03;5035875;28;20053;-87
2021/11/17 07:17:55;;;;;;;0.20;0.20;;;;;;;10.90;68.51;102028.28;5036654;28;20030;-86
2021/11/17 07:20:22;;;;;;;2.05;1.95;;;;;;;10.99;68.32;102022.97;5036111;28;20116;-89
2021/11/17 07:22:49;;;;;;;1.90;1.38;;;;;;;10.94;68.46;102030.06;5036288;28;20048;-88
2021/11/17 07:25:19;;;;;;;2.22;2.13;;;;;;;10.96;69.04;102028.25;5036045;28;20564;-89
2021/11/17 07:27:45;;;;;;;2.90;1.75;;;;;;;11.00;68.52;102045.06;5035626;28;20498;-89
2021/11/17 07:30:15;;;;;;;1.10;1.10;;;;;;;10.99;68.98;102041.53;5036074;28;20075;-88
2021/11/17 07:32:41;;;;;;;0.20;0.20;;;;;;;10.96;69.04;102043.31;5036281;28;20057;-94
2021/11/17 07:35:09;;;;;;;0.65;0.65;;;;;;;11.00;69.40;102045.97;5035913;28;20032;-94
2021/11/17 07:37:36;;;;;;;0.43;0.43;;;;;;;11.01;69.16;102041.53;5035902;28;20032;-94
2021/11/17 07:40:04;;;;;;;1.23;1.23;;;;;;;11.00;69.35;102050.34;5035976;28;20028;-91
2021/11/17 07:42:30;;;;;;;1.35;1.35;;;;;;;11.03;69.56;102054.78;5035612;28;20480;-93
2021/11/17 07:44:57;;;;;;;1.30;1.27;;;;;;;11.06;68.98;102052.13;5035848;28;20084;-87
2021/11/17 07:47:23;;;;;;;0.22;0.22;;;;;;;11.07;69.77;102052.13;5035491;28;20385;-94
2021/11/17 07:49:49;;;;;;;0.20;0.20;;;;;;;11.03;69.96;102054.78;5036079;28;20033;-87
2021/11/17 07:52:15;;;;;;;1.10;1.10;;;;;;;11.06;70.30;102054.78;5035705;28;20033;-91
2021/11/17 07:54:41;;;;;;;5.35;2.17;;;;;;;11.14;70.63;102064.47;5035482;28;20052;-92
2021/11/17 07:57:08;;;;;;;0.20;0.20;;;;;;;11.10;70.78;102064.47;5035530;28;20030;-94
2021/11/17 07:59:37;;;;;;;2.92;2.00;;;;;;;11.20;70.38;102050.28;5035673;28;20033;-94
2021/11/17 08:02:12;;;;;;;3.55;1.33;;;;;;;11.28;69.88;102053.81;5040376;28;20389;-95
2021/11/17 08:04:41;;;;;;;4.43;3.20;;;;;;;11.29;70.07;102058.25;5035636;28;20072;-94
2021/11/17 08:07:13;;;;;;;0.52;0.52;;;;;;;11.35;69.52;102045.84;5035500;28;20021;-91
2021/11/17 08:09:41;;;;;;;0.28;0.28;;;;;;;11.30;70.39;102060.00;5036627;28;20029;-83
2021/11/17 08:12:07;;;;;;;0.25;0.25;;;;;;;11.41;69.77;102069.69;5035967;28;20090;-87
2021/11/17 08:14:38;;;;;;;8.88;3.55;;;;;;;11.37;70.33;102073.25;5035036;28;20075;-92
2021/11/17 08:17:05;;;;;;;1.40;1.30;;;;;;;11.51;69.80;102079.38;5034875;28;20214;-89
2021/11/17 08:19:31;;;;;;;4.35;2.80;;;;;;;11.59;69.92;102082.00;5035411;28;20030;-90
2021/11/17 08:21:58;;;;;;;0.40;0.40;;;;;;;11.56;70.36;102077.59;5034854;28;20168;-86
2021/11/17 08:24:24;;;;;;;2.97;1.33;;;;;;;11.65;70.21;102076.66;5034972;28;20387;-90
2021/11/17 08:26:51;;;;;;;2.92;1.13;;;;;;;11.69;69.89;102082.84;5034083;28;20029;-86
2021/11/17 08:29:17;;;;;;;0.60;0.60;;;;;;;11.63;70.89;102084.63;5035218;28;20091;-90
2021/11/17 08:31:43;;;;;;;3.55;3.35;;;;;;;11.78;69.82;102082.81;5034275;28;20427;-89
2021/11/17 08:34:09;;;;;;;1.63;1.55;;;;;;;11.82;70.00;102081.91;5033755;28;20060;-89
2021/11/17 08:36:36;;;;;;;0.10;0.10;;;;;;;11.86;70.15;102077.44;5035097;28;20075;-89
2021/11/17 08:39:04;;;;;;;0.25;0.25;;;;;;;11.86;70.70;102075.66;5034602;28;20025;-89
2021/11/17 08:41:30;;;;;;;6.70;1.45;;;;;;;11.91;70.26;102068.59;5034337;28;20029;-86
2021/11/17 08:43:57;;;;;;;2.53;0.95;;;;;;;11.93;70.44;102074.75;5034567;28;20041;-90
2021/11/17 08:46:23;;;;;;;1.42;1.33;;;;;;;12.02;69.92;102079.16;5034837;28;20540;-88
2021/11/17 08:48:51;;;;;;;3.15;2.17;;;;;;;12.03;69.67;102078.25;5032764;28;20094;-85
2021/11/17 08:51:19;;;;;;;3.75;2.40;;;;;;;12.04;70.25;102079.16;5034522;28;20445;-90
2021/11/17 08:53:49;;;;;;;2.35;0.98;;;;;;;12.03;70.78;102077.41;5034271;28;20461;-88
2021/11/17 08:56:16;;;;;;;0.15;0.15;;;;;;;12.07;70.47;102068.50;5033798;28;20477;-91
2021/11/17 08:58:44;;;;;;;0.70;0.47;;;;;;;12.10;70.31;102079.09;5034065;28;20075;-89
2021/11/17 09:01:11;;;;;;;2.72;1.45;;;;;;;12.12;70.76;102087.94;5034015;28;20041;-86
2021/11/17 09:03:38;;;;;;;3.95;1.25;;;;;;;12.18;70.50;102093.22;5034857;28;20380;-91
2021/11/17 09:06:07;;;;;;;0.75;0.75;;;;;;;12.19;70.33;102097.66;5041041;28;20041;-93
2021/11/17 09:08:34;;;;;;;0.82;0.82;;;;;;;12.19;70.12;102097.66;5053721;28;20033;-92
2021/11/17 09:11:16;;;;;;;1.35;1.35;;;;;;;12.26;70.19;102111.75;5055312;28;20033;-85
2021/11/17 09:13:44;;;;;;;1.38;1.38;;;;;;;12.26;70.55;102107.34;5048419;28;20040;-96
2021/11/17 09:16:11;;;;;;;3.03;2.58;;;;;;;12.24;70.05;102103.81;5042600;28;20148;-86
2021/11/17 09:18:41;;;;;;;1.10;1.10;;;;;;;12.29;70.23;102115.28;5043280;28;20034;-92
2021/11/17 09:21:12;;;;;;;0.40;0.40;;;;;;;12.34;69.70;102111.75;5035373;28;20030;-96
2021/11/17 09:23:38;;;;;;;0.25;0.25;;;;;;;12.36;69.99;102112.59;5034531;28;20468;-95
2021/11/17 09:26:05;;;;;;;3.70;1.25;;;;;;;12.39;70.67;102124.09;5034734;28;20060;-95
2021/11/17 09:29:01;;;;;;;1.33;1.27;;;;;;;12.56;70.51;102123.06;5042187;28;20040;-84
2021/11/17 09:31:47;;;;;;;1.00;1.00;;;;;;;12.58;70.23;102121.28;5037097;28;20504;-95
2021/11/17 09:34:16;;;;;;;0.65;0.65;;;;;;;12.62;70.66;102115.94;5034580;28;20377;-87
2021/11/17 09:36:42;;;;;;;1.35;1.35;;;;;;;12.75;70.28;102127.34;5033833;28;20025;-94
2021/11/17 09:39:10;;;;;;;6.75;1.65;;;;;;;12.83;70.70;102119.31;5034137;28;20032;-93
2021/11/17 09:41:44;;;;;;;2.15;2.05;;;;;;;12.95;71.16;102123.63;5034133;28;20041;-95
2021/11/17 09:44:17;;;;;;;2.28;2.17;;;;;;;12.98;71.22;102120.94;5036097;28;20061;-96
2021/11/17 09:46:46;;;;;;;0.40;0.40;;;;;;;13.11;70.46;102133.22;5035638;28;20067;-95
2021/11/17 09:52:04;;;;;;;0.10;0.10;;;;;;;13.33;70.90;102140.09;5115354;27;20419;-93
2021/11/17 09:54:41;;;;;;;0.38;0.38;;;;;;;13.44;70.33;102138.25;5112251;28;20069;-93
2021/11/17 09:57:11;;;;;;;0.30;0.30;;;;;;;13.43;70.65;102134.72;5091068;28;20075;-95
2021/11/17 10:02:32;;;;;;;0.63;0.63;;;;;;;13.54;70.26;102155.00;5091047;27;20430;-94
2021/11/17 10:13:35;;;;;;;;;;;;;;;13.85;69.16;102150.19;5070762;28;20056;-95
2021/11/17 10:16:02;;;;;;;0.17;0.17;;;;;;;13.74;69.21;102152.09;5058589;28;19924;-94
2021/11/17 10:18:49;;;;;;;0.10;0.10;;;;;;;13.81;69.42;102143.13;5051544;28;20036;-92
2021/11/17 10:21:31;;;;;;;0.40;0.40;;;;;;;13.89;69.29;102151.91;5052337;28;20056;-94
2021/11/17 10:27:02;;;;;;;0.32;0.32;;;;;;;14.12;69.50;102153.38;5074255;27;20428;-92
2021/11/17 10:29:35;;;;;;;0.35;0.35;;;;;;;14.15;69.23;102155.13;5071237;28;20175;-92
2021/11/17 10:32:21;;;;;;;0.32;0.32;;;;;;;14.24;69.17;102155.88;5072154;28;20101;-93
2021/11/17 10:35:12;;;;;;;0.13;0.13;;;;;;;14.30;68.54;102156.69;5071254;28;20028;-92
2021/11/17 10:37:44;;;;;;;0.10;0.10;;;;;;;14.26;68.38;102155.00;5072475;28;20033;-95
2021/11/17 10:40:23;;;;;;;0.35;0.35;;;;;;;14.24;68.20;102163.88;5072504;28;20029;-95
2021/11/17 10:43:14;;;;;;;1.25;0.73;;;;;;;14.28;67.67;102177.16;5070804;28;20428;-91
2021/11/17 10:45:45;;;;;;;0.10;0.10;;;;;;;14.26;67.48;102170.97;5069171;28;20036;-96
2021/11/17 10:48:26;;;;;;;0.20;0.20;;;;;;;14.37;67.43;102174.38;5070737;28;20036;-96
2021/11/17 10:51:18;;;;;;;0.17;0.17;;;;;;;14.34;66.67;102179.72;5070484;28;20017;-96
2021/11/17 10:53:53;;;;;;;0.20;0.20;;;;;;;14.40;66.08;102175.22;5070476;28;20036;-96
2021/11/17 10:56:23;;;;;;;0.10;0.10;;;;;;;14.38;65.45;102165.44;5069557;28;20031;-96
2021/11/17 10:58:53;;;;;;;0.68;0.68;;;;;;;14.50;65.76;102173.25;5070775;28;20021;-94
2021/11/17 11:01:26;;;;;;;0.10;0.10;;;;;;;14.55;64.95;102173.19;5070234;28;20032;-94
2021/11/17 11:04:02;;;;;;;0.20;0.20;;;;;;;14.49;63.72;102174.19;5072466;28;20017;-96
2021/11/17 11:06:48;;;;;;;0.10;0.10;;;;;;;14.64;61.92;102167.75;5071274;28;20054;-96
2021/11/17 11:12:01;;;;;;;0.10;0.10;;;;;;;14.64;61.10;102180.19;5110464;27;20446;-93
2021/11/17 11:14:38;;;;;;;0.10;0.10;;;;;;;14.68;60.68;102173.94;5111326;28;20083;-91
2021/11/17 11:19:46;;;;;;;1.42;1.35;;;;;;;14.72;60.96;102170.31;5090786;28;20427;-88
2021/11/17 11:24:58;;;;;;;0.10;0.10;;;;;;;14.82;57.98;102171.03;5091105;27;20381;-88
2021/11/17 11:27:31;;;;;;;0.10;0.10;;;;;;;14.85;57.39;102171.88;5090457;28;20105;-90
2021/11/17 11:33:48;;;;;;;0.10;0.10;;;;;;;14.75;55.69;102169.38;5121099;22;20053;-92
2021/11/17 12:00:37;;;;;;;0.10;0.10;;;;;;;15.03;55.54;102185.81;5090151;27;1288076;-96
2021/11/17 12:03:09;;;;;;;0.93;0.90;;;;;;;15.07;55.14;102181.31;5109938;28;20105;-95
2021/11/17 12:06:01;;;;;;;0.10;0.10;;;;;;;15.16;55.22;102192.69;5118714;28;20023;-96
2021/11/17 12:11:31;;;;;;;0.50;0.50;;;;;;;15.10;55.46;102202.59;5088838;28;20413;-95
2021/11/17 12:14:09;;;;;;;0.10;0.10;;;;;;;15.08;55.53;102205.31;5068246;28;20105;-96
2021/11/17 12:17:03;;;;;;;0.08;0.08;;;;;;;15.08;55.34;102207.97;5119260;22;20052;-92
2021/11/17 12:20:10;;;;;;;0.10;0.10;;;;;;;14.96;55.65;102205.50;5088582;28;20045;-90
2021/11/17 12:28:13;;;;;;;0.10;0.10;;;;;;;14.65;56.85;102205.97;5103447;27;20394;-92
2021/11/17 12:31:04;;;;;;;0.25;0.25;;;;;;;14.79;56.77;102214.66;5072760;28;20064;-92
2021/11/17 12:33:42;;;;;;;0.22;0.22;;;;;;;14.65;56.49;102216.66;5070720;28;20147;-94
2021/11/17 12:39:20;;;;;;;0.22;0.22;;;;;;;14.75;56.65;102223.59;4587533;27;13360333;-94
2021/11/17 12:41:54;;;;;;;0.10;0.10;;;;;;;14.68;57.15;102221.97;5072129;28;20033;-92
2021/11/17 12:44:31;;;;;;;0.10;0.10;;;;;;;14.74;57.22;102223.63;5072534;28;20487;-93
2021/11/17 12:47:10;;;;;;;0.10;0.10;;;;;;;14.57;57.31;102230.94;5140952;22;20037;-87
2021/11/17 12:49:42;;;;;;;0.10;0.10;;;;;;;14.60;57.32;102230.03;5047634;28;20067;-84
2021/11/17 12:52:21;;;;;;;0.55;0.47;;;;;;;14.52;57.39;102237.28;5048941;28;20033;-91
2021/11/17 12:54:54;;;;;;;0.47;0.38;;;;;;;14.47;57.81;102232.00;5050444;28;20554;-88
2021/11/17 12:57:26;;;;;;;0.10;0.10;;;;;;;14.37;57.46;102249.03;5022644;28;20067;-89
2021/11/17 13:00:03;;;;;;;0.10;0.10;;;;;;;14.52;57.95;102234.59;5038106;28;20051;-88
2021/11/17 13:02:42;;;;;;;0.98;0.98;;;;;;;14.61;57.98;102228.25;5032482;28;20118;-81
2021/11/17 13:08:35;;;;;;;0.20;0.20;;;;;;;14.76;56.87;102235.19;5066025;27;20501;-88
2021/11/17 13:13:51;;;;;;;0.10;0.10;;;;;;;14.64;57.25;102234.44;5014484;27;2431486;-86
2021/11/17 13:16:25;;;;;;;0.15;0.15;;;;;;;14.59;56.88;102238.91;5059416;28;20033;-82
2021/11/17 13:19:14;;;;;;;0.10;0.10;;;;;;;14.52;56.55;102247.94;5048945;28;20040;-85
2021/11/17 13:21:50;;;;;;;0.10;0.10;;;;;;;14.43;56.69;102248.94;5050011;28;20071;-85
2021/11/17 13:27:44;;;;;;;0.20;0.20;;;;;;;14.36;56.33;102250.78;5057577;28;20489;-89
2021/11/17 13:30:43;;;;;;;0.10;0.10;;;;;;;14.27;56.35;102263.34;5058968;28;20029;-92
2021/11/17 13:39:00;;;;;;;0.10;0.10;;;;;;;14.10;55.74;102242.28;5070445;27;20443;-89
2021/11/17 13:41:27;;;;;;;0.10;0.10;;;;;;;14.00;56.63;102246.81;5059305;28;20040;-86
2021/11/17 13:43:54;;;;;;;0.10;0.10;;;;;;;13.88;56.04;102243.41;5060208;28;20025;-88
2021/11/17 13:46:20;;;;;;;0.13;0.13;;;;;;;13.85;56.03;102242.56;5054819;28;20201;-86
2021/11/17 13:48:57;;;;;;;0.10;0.10;;;;;;;13.83;55.90;102247.91;5054269;28;20032;-83
2021/11/17 13:51:29;;;;;;;0.03;0.03;;;;;;;14.00;56.31;102254.81;5056942;28;20452;-85
2021/11/17 13:54:03;;;;;;;0.10;0.10;;;;;;;14.06;56.16;102263.59;5061371;28;20056;-90
2021/11/17 13:56:32;;;;;;;0.10;0.10;;;;;;;14.17;56.35;102262.63;5053209;28;20024;-89
2021/11/17 13:58:58;;;;;;;0.38;0.38;;;;;;;14.30;55.84;102250.88;5058620;28;20064;-90
2021/11/17 14:01:27;;;;;;;1.45;1.17;;;;;;;14.34;54.96;102259.72;5045545;28;20037;-85
2021/11/17 14:03:54;;;;;;;0.10;0.10;;;;;;;14.45;55.46;102249.78;5050642;28;20035;-90
2021/11/17 14:06:22;;;;;;;0.47;0.47;;;;;;;14.45;54.34;102263.13;5053212;28;20459;-87
2021/11/17 14:08:49;;;;;;;0.10;0.10;;;;;;;14.44;55.01;102269.34;5054821;28;20079;-86
2021/11/17 14:11:16;;;;;;;0.05;0.05;;;;;;;14.51;54.94;102268.38;5050691;28;20400;-89
2021/11/17 14:13:44;;;;;;;0.17;0.17;;;;;;;14.49;54.36;102278.19;5053313;28;20037;-92
2021/11/17 14:16:11;;;;;;;0.90;0.90;;;;;;;14.52;54.00;102280.81;5053118;28;20033;-92
2021/11/17 14:18:37;;;;;;;0.10;0.10;;;;;;;14.46;53.86;102275.56;5057330;28;20033;-92
2021/11/17 14:21:06;;;;;;;0.08;0.08;;;;;;;14.52;54.68;102280.81;5052594;28;20098;-91
2021/11/17 14:23:33;;;;;;;0.10;0.10;;;;;;;14.49;54.03;102279.97;5052607;28;20037;-93
2021/11/17 14:26:00;;;;;;;0.10;0.10;;;;;;;14.55;54.01;102282.56;5053804;28;20040;-91
2021/11/17 14:28:32;;;;;;;0.10;0.10;;;;;;;14.55;54.05;102290.56;5050396;28;20029;-91
2021/11/17 14:31:04;;;;;;;1.73;1.55;;;;;;;14.56;53.61;102285.19;5053340;28;20079;-92
2021/11/17 14:33:32;;;;;;;0.10;0.10;;;;;;;14.54;53.74;102305.69;5055072;28;20041;-90
2021/11/17 14:36:01;;;;;;;0.10;0.10;;;;;;;14.44;52.98;102293.34;5054004;28;20025;-92
2021/11/17 14:38:29;;;;;;;0.75;0.75;;;;;;;14.48;53.51;102296.88;5054239;28;20033;-93
2021/11/17 14:40:57;;;;;;;0.10;0.10;;;;;;;14.45;53.99;102300.47;5051429;28;20030;-82
2021/11/17 14:43:25;;;;;;;0.10;0.10;;;;;;;14.42;54.13;102300.50;5049249;28;20109;-91
2021/11/17 14:45:52;;;;;;;0.10;0.10;;;;;;;14.40;53.73;102288.97;5056379;28;20025;-89
2021/11/17 14:48:21;;;;;;;0.10;0.10;;;;;;;14.36;53.72;102298.78;5048610;28;20033;-88
2021/11/17 14:50:49;;;;;;;0.10;0.10;;;;;;;14.27;53.75;102296.25;5038616;28;20472;-87
2021/11/17 14:53:16;;;;;;;0.20;0.20;;;;;;;14.14;53.98;102306.16;5038908;28;20037;-90
2021/11/17 14:55:44;;;;;;;0.10;0.10;;;;;;;14.13;54.61;102307.09;5035256;28;20030;-89
2021/11/17 14:58:10;;;;;;;0.10;0.10;;;;;;;14.09;54.83;102308.00;5039660;28;20059;-90
2021/11/17 15:00:41;;;;;;;1.00;0.73;;;;;;;14.08;54.95;102306.22;5040086;28;20120;-84
2021/11/17 15:03:07;;;;;;;1.75;1.35;;;;;;;13.98;55.39;102320.56;5040169;28;20130;-85
2021/11/17 15:05:38;;;;;;;0.10;0.10;;;;;;;13.85;55.26;102320.69;5036232;28;20037;-85
2021/11/17 15:08:07;;;;;;;0.10;0.10;;;;;;;13.87;55.56;102323.34;5038260;28;20041;-88
2021/11/17 15:10:34;;;;;;;0.10;0.10;;;;;;;13.78;55.91;102324.28;5039875;28;20040;-89
2021/11/17 15:13:00;;;;;;;0.10;0.10;;;;;;;13.74;56.07;102322.56;5035927;28;20044;-86
2021/11/17 15:15:32;;;;;;;0.10;0.10;;;;;;;13.71;56.15;102325.28;5041804;28;20435;-86
2021/11/17 15:17:59;;;;;;;0.10;0.10;;;;;;;13.62;56.24;102333.34;5040180;28;20466;-88
2021/11/17 15:20:27;;;;;;;0.10;0.10;;;;;;;13.66;56.01;102333.31;5037166;28;20124;-86
2021/11/17 15:22:54;;;;;;;0.50;0.30;;;;;;;13.55;56.22;102332.53;5035484;28;20145;-89
2021/11/17 15:25:24;;;;;;;0.20;0.20;;;;;;;13.52;56.62;102336.09;5034781;28;20033;-88
2021/11/17 15:27:54;;;;;;;0.10;0.10;;;;;;;13.50;56.26;102335.22;5035596;28;20040;-87
2021/11/17 15:30:24;;;;;;;0.10;0.10;;;;;;;13.43;56.24;102339.72;5040531;28;20033;-88
2021/11/17 15:32:53;;;;;;;0.10;0.10;;;;;;;13.40;56.70;102337.06;5039261;28;20033;-86
2021/11/17 15:35:21;;;;;;;0.10;0.10;;;;;;;13.26;56.87;102331.81;5040705;28;20030;-89
2021/11/17 15:37:50;;;;;;;0.10;0.10;;;;;;;13.25;57.26;102343.34;5041587;28;20431;-86
2021/11/17 15:40:19;;;;;;;0.15;0.15;;;;;;;13.24;57.07;102343.38;5034685;28;20099;-85
2021/11/17 15:42:48;;;;;;;0.30;0.30;;;;;;;13.19;56.86;102347.84;5041301;28;20036;-81
2021/11/17 15:48:10;;;;;;;1.05;0.95;;;;;;;13.22;57.19;102353.13;5243378;23;20050;-85
2021/11/17 15:50:40;;;;;;;0.10;0.10;;;;;;;13.09;57.11;102355.88;5033683;28;20038;-93
2021/11/17 15:53:08;;;;;;;0.52;0.52;;;;;;;12.99;57.17;102363.94;5036333;28;20056;-90
2021/11/17 15:55:35;;;;;;;0.10;0.10;;;;;;;12.98;57.53;102362.16;5030903;28;20069;-96
2021/11/17 15:58:03;;;;;;;0.10;0.10;;;;;;;12.88;58.14;102367.53;5034407;28;20493;-91
2021/11/17 16:00:32;;;;;;;0.10;0.10;;;;;;;12.84;58.49;102367.56;5042499;28;20041;-90
2021/11/17 16:02:58;;;;;;;0.10;0.10;;;;;;;12.79;58.59;102367.59;5022053;28;20056;-92
2021/11/17 16:05:26;;;;;;;1.33;1.23;;;;;;;12.74;58.70;102380.03;5024476;28;20021;-94
2021/11/17 16:07:54;;;;;;;26.05;0.88;;;;;;;12.69;58.74;102377.38;5036041;28;20079;-96
2021/11/17 16:10:23;;;;;;;0.10;0.10;;;;;;;12.60;58.55;102375.63;5040478;28;20045;-96
2021/11/17 16:12:50;;;;;;;0.10;0.10;;;;;;;12.61;58.89;102379.16;5032282;28;20026;-93
2021/11/17 16:15:18;;;;;;;0.15;0.15;;;;;;;12.52;58.77;102380.09;5025863;28;20033;-89
2021/11/17 16:17:44;;;;;;;0.10;0.10;;;;;;;12.45;58.99;102384.56;5022692;28;20061;-96
2021/11/17 16:20:15;;;;;;;0.13;0.13;;;;;;;12.43;58.57;102390.75;5021070;28;21115;-96
2021/11/17 16:23:03;;;;;;;0.10;0.10;;;;;;;12.39;58.87;102389.88;5028090;28;20057;-96
2021/11/17 16:25:33;;;;;;;0.10;0.10;;;;;;;12.34;59.14;102385.50;5024824;28;20505;-94
2021/11/17 16:28:02;;;;;;;0.73;0.73;;;;;;;12.29;59.20;102394.34;5038655;28;20064;-94
2021/11/17 16:30:29;;;;;;;0.10;0.10;;;;;;;12.30;59.27;102403.22;5039902;28;20034;-96
2021/11/17 16:32:56;;;;;;;0.10;0.10;;;;;;;12.24;59.24;102412.06;5042815;28;20471;-90
2021/11/17 16:35:35;;;;;;;0.10;0.10;;;;;;;12.24;59.04;102413.84;5036476;28;20037;-94
2021/11/17 16:38:08;;;;;;;0.10;0.10;;;;;;;12.08;59.90;102416.50;5040186;28;20045;-93
2021/11/17 16:40:37;;;;;;;0.10;0.10;;;;;;;12.04;59.23;102413.88;5030398;28;20030;-96
2021/11/17 16:43:06;;;;;;;0.10;0.10;;;;;;;11.98;60.16;102420.06;5022981;28;20095;-96
2021/11/17 16:45:36;;;;;;;0.10;0.10;;;;;;;11.93;59.74;102432.44;5022596;28;20045;-96
2021/11/17 16:48:03;;;;;;;0.10;0.10;;;;;;;11.87;60.05;102424.47;5030817;28;20040;-96
2021/11/17 16:50:30;;;;;;;0.10;0.10;;;;;;;11.81;59.95;102433.31;5036838;28;20036;-96
2021/11/17 16:52:58;;;;;;;0.10;0.10;;;;;;;11.74;60.40;102440.41;5024053;28;20042;-95
2021/11/17 16:55:28;;;;;;;0.20;0.20;;;;;;;11.69;60.50;102441.25;5018731;28;20041;-96
2021/11/17 16:57:57;;;;;;;0.10;0.10;;;;;;;11.64;60.97;102444.81;5019359;28;20108;-96
2021/11/17 17:00:27;;;;;;;0.55;0.55;;;;;;;11.61;60.75;102452.78;5014182;28;20036;-94
2021/11/17 17:02:53;;;;;;;0.10;0.10;;;;;;;11.56;60.42;102459.84;5022504;28;20061;-89
2021/11/17 17:05:21;;;;;;;0.10;0.10;;;;;;;11.51;61.18;102468.69;5023151;28;20021;-96
2021/11/17 17:07:48;;;;;;;0.10;0.10;;;;;;;11.46;61.48;102471.31;5020237;28;20036;-96
2021/11/17 17:10:19;;;;;;;0.10;0.10;;;;;;;11.46;61.40;102473.97;5028617;28;20030;-90
2021/11/17 17:12:46;;;;;;;0.10;0.10;;;;;;;11.43;60.89;102476.63;5021599;28;20041;-90
2021/11/17 17:15:15;;;;;;;0.10;0.10;;;;;;;11.37;61.53;102484.59;5021797;28;20172;-92
2021/11/17 17:17:42;;;;;;;0.10;0.10;;;;;;;11.33;61.61;102481.91;5027127;28;20112;-93
2021/11/17 17:20:12;;;;;;;0.20;0.20;;;;;;;11.33;61.51;102489.88;5019594;28;20030;-92
2021/11/17 17:22:38;;;;;;;0.10;0.10;;;;;;;11.28;61.90;102496.94;5021834;28;20049;-91
2021/11/17 17:25:08;;;;;;;0.10;0.10;;;;;;;11.29;61.27;102506.66;5025033;28;20443;-95
2021/11/17 17:27:37;;;;;;;0.10;0.10;;;;;;;11.26;61.90;102514.59;5028137;28;20037;-95
2021/11/17 17:30:05;;;;;;;0.13;0.13;;;;;;;11.21;62.24;102516.34;5024639;28;20049;-94
2021/11/17 17:32:31;;;;;;;0.10;0.10;;;;;;;11.22;62.27;102527.88;5022029;28;20034;-94
2021/11/17 17:34:57;;;;;;;0.10;0.10;;;;;;;11.23;62.25;102530.53;5022175;28;20048;-95
2021/11/17 17:37:23;;;;;;;0.20;0.20;;;;;;;11.20;62.36;102532.25;5021424;28;20056;-95
2021/11/17 17:39:51;;;;;;;0.73;0.73;;;;;;;11.18;62.39;102526.97;5027393;28;20064;-91
2021/11/17 17:42:20;;;;;;;0.30;0.30;;;;;;;11.19;61.61;102528.75;5025983;28;20136;-93
2021/11/17 17:44:48;;;;;;;0.30;0.30;;;;;;;11.15;62.42;102529.59;5028119;28;20033;-84